Airfield :
LOGIN :

Register | Disclaimer

   EN    FR    IT 

 










Legend :    VFR   Marginal VFR   IFR   Intensive IFR   Very Intensive IFR
Visi :
Ceiling :
>= 8 km
>= 3000ft
5 to 8 km
1000 to 3000 ft
1500m to 5 km
500 to 1000 ft
800 to 1500m
200 to 500 ft
< 800m
< 200 ft
Symbols :   Thunderstorms  Fog  Heavy snow  Heavy precipitations  Wind > 20 kt
SIGMETs :     Misc.  Thunderstorms  Icing  Turbulence  Mountain Waves  Volcanic Ashes






- Airport Elevation : 512 ft
- IATA code : URO


LFOP - Rouen Vallée de Seine

CURRENT METAR :
  • 230900Z AUTO 27013KT 240V300 9999 FEW018 SCT023 BKN028 18/14 Q1020 TEMPO BKN011

EXPIRED METARs :
  • 230830Z AUTO 25013KT 230V310 9999 BKN015 OVC021 18/16 Q1019 TEMPO BKN011
  • 230800Z AUTO 26013KT 9999 BKN011 BKN016 BKN046 18/16 Q1019 BECMG BKN020
  • 230730Z AUTO 26010KT 230V290 9999 BKN009 OVC015 18/16 Q1019 BECMG BKN020
  • 230700Z AUTO 26009KT 9999 BKN009 BKN013 OVC019 17/17 Q1019 NOSIG
  • 230630Z AUTO 26008KT 9999 BKN006 OVC022 16/16 Q1019 NOSIG
  • 230600Z AUTO 27009KT 230V290 9999 BKN007 BKN012 OVC019 16/16 Q1019 NOSIG
  • 230530Z AUTO 28012KT 9999 SCT004 BKN009 OVC015 16/16 Q1019 NOSIG
  • 230500Z AUTO 27008KT 240V300 3900 -DZ BR OVC004 17/17 Q1018
  • 230430Z AUTO 26009KT 230V300 9999 BKN007 BKN011 OVC016 17/17 Q1018

TAF TAF LFOP
Valid from the 23 at 09:00 until the 23 at 18:00 UTC


230800Z 2309/2318 27010KT 9999 BKN020
TEMPO 2309/2310 BKN011
ATIS : +33 2 35 80 80 34
Met : +33 2 32 86 52 80



MET'MAP, your aeronautical weather chart ! - Copyright ORBIFLY December 2007 - Disclaimer

ORBIFLY MET'MAP TEAM :

Programming & Development : Alexandra Zaïnal
Original concept : Baudouin d'Aumeries
Technical & hardware support : Manuel Goepfert
Assistance : Marc-Olivier Méhu




SOURCES & CREDITS :

   NOAA